createdAt,value
2019-03-25T00:01:52.460Z,62.70
2019-03-25T00:04:23.099Z,64.34
2019-03-25T00:06:53.709Z,64.67
2019-03-25T00:09:24.211Z,65.82
2019-03-25T00:11:54.808Z,66.19
2019-03-25T00:14:25.308Z,66.52
2019-03-25T00:16:55.847Z,66.41
2019-03-25T00:19:26.394Z,65.18
2019-03-25T00:21:57.003Z,65.04
2019-03-25T00:24:38.148Z,65.33
2019-03-25T00:27:00.781Z,65.20
2019-03-25T00:29:31.310Z,63.71
2019-03-25T00:32:01.840Z,62.37
2019-03-25T00:34:32.361Z,62.66
2019-03-25T00:37:04.104Z,63.02
2019-03-25T00:39:34.576Z,61.81
2019-03-25T00:42:05.128Z,60.42
2019-03-25T00:44:35.570Z,59.03
2019-03-25T00:47:06.117Z,58.50
2019-03-25T00:49:36.807Z,60.11
2019-03-25T00:52:07.372Z,60.03
2019-03-25T00:54:49.366Z,60.20
2019-03-25T00:57:10.085Z,60.42
2019-03-25T00:59:41.065Z,60.09
2019-03-25T01:02:11.596Z,59.47
2019-03-25T01:04:42.254Z,59.49
2019-03-25T01:07:12.787Z,61.90
2019-03-25T01:09:43.335Z,62.09
2019-03-25T01:12:13.858Z,61.79
2019-03-25T01:14:44.357Z,60.75
2019-03-25T01:17:14.861Z,60.00
2019-03-25T01:19:45.443Z,59.77
2019-03-25T01:22:15.900Z,59.75
2019-03-25T01:24:46.446Z,61.01
2019-03-25T01:27:16.993Z,61.14
2019-03-25T01:29:47.469Z,62.67
2019-03-25T01:32:17.951Z,62.94
2019-03-25T01:34:48.330Z,61.56
2019-03-25T01:37:18.860Z,61.42
2019-03-25T01:39:49.317Z,60.93
2019-03-25T01:42:19.941Z,61.45
2019-03-25T01:44:50.494Z,60.71
2019-03-25T01:47:21.026Z,60.69
2019-03-25T01:49:51.452Z,62.26
2019-03-25T01:52:23.080Z,62.32
2019-03-25T01:54:54.510Z,62.61
2019-03-25T01:57:25.036Z,62.31
2019-03-25T01:59:55.885Z,61.24
2019-03-25T02:02:26.426Z,61.37
2019-03-25T02:04:56.938Z,62.21
2019-03-25T02:07:27.403Z,62.52
2019-03-25T02:09:57.933Z,62.58
2019-03-25T02:12:28.398Z,62.45
2019-03-25T02:14:58.957Z,61.73
2019-03-25T02:17:29.625Z,62.60
2019-03-25T02:20:00.343Z,62.55
2019-03-25T02:22:30.982Z,62.39
2019-03-25T02:25:01.648Z,62.93
2019-03-25T02:27:32.196Z,62.48
2019-03-25T02:30:02.767Z,63.15
2019-03-25T02:32:34.390Z,62.30
2019-03-25T02:35:05.144Z,62.36
2019-03-25T02:37:35.613Z,61.76
2019-03-25T02:40:06.714Z,63.13
2019-03-25T02:42:38.202Z,63.86
2019-03-25T02:45:09.087Z,66.38
2019-03-25T02:47:39.565Z,66.67
2019-03-25T02:50:10.441Z,68.59
2019-03-25T02:52:41.114Z,67.72
2019-03-25T02:55:11.844Z,66.67
2019-03-25T02:57:42.302Z,67.04
2019-03-25T03:00:13.994Z,68.87
2019-03-25T03:02:44.464Z,69.14
2019-03-25T03:05:17.593Z,68.71
2019-03-25T03:07:47.997Z,69.03
2019-03-25T03:10:18.594Z,66.77
2019-03-25T03:12:49.076Z,67.73
2019-03-25T03:15:19.502Z,67.55
2019-03-25T03:17:50.045Z,68.30
2019-03-25T03:20:20.698Z,69.41
2019-03-25T03:22:51.075Z,69.19
2019-03-25T03:25:21.542Z,70.12
2019-03-25T03:27:52.017Z,70.97
2019-03-25T03:30:22.432Z,71.42
2019-03-25T03:32:52.927Z,71.35
2019-03-25T03:35:23.469Z,70.35
2019-03-25T03:37:53.940Z,68.45
2019-03-25T03:40:24.564Z,69.22
2019-03-25T03:42:55.226Z,69.52
2019-03-25T03:45:25.702Z,68.62
2019-03-25T03:47:56.248Z,69.59
2019-03-25T03:50:28.485Z,70.21
2019-03-25T03:53:00.010Z,70.57
2019-03-25T03:55:31.448Z,71.39
2019-03-25T03:58:02.204Z,72.27
2019-03-25T04:00:34.483Z,73.42
2019-03-25T04:03:05.020Z,72.43
2019-03-25T04:05:35.671Z,70.52
2019-03-25T04:08:06.196Z,69.41
2019-03-25T04:10:36.736Z,70.01
2019-03-25T04:13:07.264Z,68.81
2019-03-25T04:15:37.701Z,68.01
2019-03-25T04:18:08.162Z,69.72
2019-03-25T04:20:38.681Z,69.07
2019-03-25T04:23:09.299Z,67.56
2019-03-25T04:25:39.768Z,68.18
2019-03-25T04:28:10.350Z,68.84
2019-03-25T04:30:40.841Z,68.38
2019-03-25T04:33:11.288Z,69.46
2019-03-25T04:35:41.926Z,69.60
2019-03-25T04:38:12.431Z,70.96
2019-03-25T04:40:42.961Z,69.98
2019-03-25T04:43:13.386Z,70.38
2019-03-25T04:45:43.925Z,70.44
2019-03-25T04:48:14.492Z,68.21
2019-03-25T04:50:44.951Z,69.33
2019-03-25T04:53:15.391Z,71.41
2019-03-25T04:55:45.860Z,70.84
2019-03-25T04:58:16.303Z,71.82
2019-03-25T05:00:46.922Z,71.31
2019-03-25T05:03:17.426Z,72.77
2019-03-25T05:05:48.023Z,71.89
2019-03-25T05:08:18.411Z,72.45
2019-03-25T05:10:48.911Z,72.51
2019-03-25T05:13:19.488Z,72.93
2019-03-25T05:15:50.012Z,72.75
2019-03-25T05:18:20.470Z,72.98
2019-03-25T05:20:50.936Z,72.46
2019-03-25T05:23:21.463Z,73.26
2019-03-25T05:25:51.984Z,73.42
2019-03-25T05:28:22.443Z,73.05
2019-03-25T05:30:52.918Z,72.08
2019-03-25T05:33:23.395Z,73.02
2019-03-25T05:35:55.584Z,72.77
2019-03-25T05:38:26.086Z,72.42
2019-03-25T05:40:56.673Z,73.26
2019-03-25T05:43:27.115Z,73.50
2019-03-25T05:45:57.587Z,71.81
2019-03-25T05:48:28.104Z,72.24
2019-03-25T05:50:58.701Z,72.25
2019-03-25T05:53:29.166Z,72.38
2019-03-25T05:55:59.616Z,71.71
2019-03-25T05:58:30.070Z,70.70
2019-03-25T06:01:00.443Z,69.75
2019-03-25T06:03:30.983Z,67.61
2019-03-25T06:06:01.962Z,67.17
2019-03-25T06:08:32.338Z,67.39
2019-03-25T06:11:02.999Z,67.33
2019-03-25T06:13:33.515Z,67.83
2019-03-25T06:16:04.065Z,67.68
2019-03-25T06:18:34.619Z,67.63
2019-03-25T06:21:05.077Z,66.61
2019-03-25T06:23:35.540Z,65.94
2019-03-25T06:26:08.583Z,66.57
2019-03-25T06:28:42.018Z,66.09
2019-03-25T06:31:12.542Z,65.52
2019-03-25T06:33:42.983Z,65.38
2019-03-25T06:36:13.425Z,63.32
2019-03-25T06:38:43.881Z,62.64
2019-03-25T06:41:14.315Z,61.40
2019-03-25T06:43:44.890Z,60.26
2019-03-25T06:46:15.369Z,59.08
2019-03-25T06:48:45.739Z,58.03
2019-03-25T06:51:17.538Z,56.76
2019-03-25T06:53:48.320Z,56.86
2019-03-25T06:56:19.810Z,56.32
2019-03-25T06:58:50.287Z,56.06
2019-03-25T07:01:20.737Z,56.11
2019-03-25T07:03:51.184Z,56.02
2019-03-25T07:06:22.200Z,55.35
2019-03-25T07:08:52.771Z,55.16
2019-03-25T07:11:23.517Z,54.95
2019-03-25T07:13:54.432Z,55.42
2019-03-25T07:16:24.861Z,55.50
2019-03-25T07:18:55.479Z,55.36
2019-03-25T07:21:26.021Z,54.99
2019-03-25T07:23:56.542Z,54.26
2019-03-25T07:26:26.970Z,53.64
2019-03-25T07:28:58.475Z,52.84
2019-03-25T07:31:29.049Z,54.55
2019-03-25T07:33:59.591Z,55.58
2019-03-25T07:36:30.126Z,55.28
2019-03-25T07:39:00.582Z,54.50
2019-03-25T07:41:32.662Z,54.53
2019-03-25T07:44:03.127Z,54.30
2019-03-25T07:46:33.590Z,54.11
2019-03-25T07:49:04.035Z,54.39
2019-03-25T07:51:34.563Z,53.89
2019-03-25T07:54:05.110Z,54.57
2019-03-25T07:56:35.521Z,54.21
2019-03-25T07:59:05.984Z,54.64
2019-03-25T08:01:36.608Z,54.15
2019-03-25T08:04:08.173Z,53.95
2019-03-25T08:06:39.195Z,54.62
2019-03-25T08:09:10.113Z,53.73
2019-03-25T08:11:40.561Z,53.41
2019-03-25T08:14:11.008Z,53.51
2019-03-25T08:16:41.538Z,52.50
2019-03-25T08:19:12.081Z,52.28
2019-03-25T08:21:42.627Z,51.61
2019-03-25T08:24:13.231Z,52.28
2019-03-25T08:26:43.756Z,52.23
2019-03-25T08:29:14.216Z,51.37
2019-03-25T08:31:44.653Z,50.92
2019-03-25T08:34:15.205Z,50.67
2019-03-25T08:36:45.849Z,50.29
2019-03-25T08:39:16.458Z,49.99
2019-03-25T08:41:46.987Z,49.98
2019-03-25T08:44:17.524Z,48.40
2019-03-25T08:46:47.977Z,49.39
2019-03-25T08:49:18.440Z,49.77
2019-03-25T08:51:48.951Z,48.47
2019-03-25T08:54:19.415Z,49.59
2019-03-25T08:56:50.035Z,50.10
2019-03-25T08:59:20.474Z,49.84
2019-03-25T09:01:50.923Z,49.49
2019-03-25T09:04:21.373Z,49.72
2019-03-25T09:06:51.919Z,49.93
2019-03-25T09:09:22.331Z,48.63
2019-03-25T09:11:52.850Z,49.45
2019-03-25T09:14:23.319Z,49.33
2019-03-25T09:16:53.770Z,49.09
2019-03-25T09:19:24.218Z,48.83
2019-03-25T09:21:54.682Z,49.00
2019-03-25T09:24:25.213Z,48.41
2019-03-25T09:26:55.686Z,48.44
2019-03-25T09:29:26.331Z,48.98
2019-03-25T09:31:57.845Z,49.38
2019-03-25T09:34:28.395Z,48.79
2019-03-25T09:36:58.996Z,47.78
2019-03-25T09:39:29.440Z,47.60
2019-03-25T09:41:59.974Z,47.37
2019-03-25T09:44:30.419Z,47.28
2019-03-25T09:47:01.043Z,46.17
2019-03-25T09:49:31.694Z,47.35
2019-03-25T09:52:02.226Z,47.65
2019-03-25T09:54:32.705Z,47.52
2019-03-25T09:57:03.373Z,46.87
2019-03-25T09:59:33.827Z,45.74
2019-03-25T10:02:04.676Z,46.00
2019-03-25T10:04:35.342Z,44.89
2019-03-25T10:07:06.202Z,44.64
2019-03-25T10:09:36.753Z,43.87
2019-03-25T10:12:07.230Z,44.48
2019-03-25T10:14:37.670Z,44.54
2019-03-25T10:17:08.123Z,45.12
2019-03-25T10:19:38.566Z,44.14
2019-03-25T10:22:09.220Z,43.57
2019-03-25T10:24:40.728Z,43.97
2019-03-25T10:27:11.190Z,43.84
2019-03-25T10:29:41.716Z,44.53
2019-03-25T10:32:15.274Z,43.79
2019-03-25T10:34:45.734Z,44.23
2019-03-25T10:37:16.262Z,41.49
2019-03-25T10:39:46.797Z,40.18
2019-03-25T10:42:17.332Z,38.05
2019-03-25T10:44:47.854Z,38.61
2019-03-25T10:47:18.333Z,38.04
2019-03-25T10:49:48.801Z,38.80
2019-03-25T10:52:19.146Z,38.64
2019-03-25T10:54:49.633Z,38.99
2019-03-25T10:57:20.350Z,38.03
2019-03-25T10:59:50.798Z,37.85
2019-03-25T11:02:21.398Z,38.02
2019-03-25T11:04:53.185Z,36.66
2019-03-25T11:07:23.785Z,37.30
2019-03-25T11:09:55.351Z,37.48
2019-03-25T11:12:25.999Z,36.90
2019-03-25T11:14:57.758Z,37.68
2019-03-25T11:17:28.241Z,38.17
2019-03-25T11:19:58.723Z,36.60
2019-03-25T11:22:30.146Z,36.64
2019-03-25T11:25:00.651Z,37.78
2019-03-25T11:27:31.219Z,37.69
2019-03-25T11:30:03.211Z,36.68
2019-03-25T11:32:33.766Z,36.10
2019-03-25T11:35:05.688Z,36.08
2019-03-25T11:37:37.116Z,35.36
2019-03-25T11:40:08.801Z,34.51
2019-03-25T11:42:39.309Z,34.85
2019-03-25T11:45:10.915Z,34.13
2019-03-25T11:47:41.548Z,34.42
2019-03-25T11:50:12.632Z,33.75
2019-03-25T11:52:43.114Z,34.51
2019-03-25T11:55:13.698Z,35.57
2019-03-25T11:57:44.286Z,36.58
2019-03-25T12:00:16.301Z,36.61
2019-03-25T12:02:46.747Z,35.69
2019-03-25T12:05:17.433Z,36.36
2019-03-25T12:07:47.887Z,36.36
2019-03-25T12:10:18.672Z,37.75
2019-03-25T12:12:49.224Z,38.55
2019-03-25T12:15:19.921Z,39.71
2019-03-25T12:17:50.357Z,40.04
2019-03-25T12:20:21.788Z,40.20
2019-03-25T12:22:52.235Z,40.59
2019-03-25T12:25:22.729Z,40.26
2019-03-25T12:27:53.282Z,39.91
2019-03-25T12:30:23.941Z,38.75
2019-03-25T12:33:03.574Z,38.47
2019-03-25T12:35:26.750Z,37.62
2019-03-25T12:37:57.285Z,36.38
2019-03-25T12:40:28.045Z,36.81
2019-03-25T12:42:58.561Z,37.65
2019-03-25T12:45:29.070Z,38.00
2019-03-25T12:47:59.584Z,38.33
2019-03-25T12:50:30.058Z,38.06
2019-03-25T12:53:00.580Z,38.88
2019-03-25T12:55:31.143Z,39.60
2019-03-25T12:58:01.868Z,40.88
2019-03-25T13:00:50.559Z,40.61
2019-03-25T13:03:20.922Z,40.59
2019-03-25T13:05:51.473Z,40.51
2019-03-25T13:08:32.603Z,40.59
2019-03-25T13:10:54.247Z,41.36
2019-03-25T13:13:24.755Z,41.35
2019-03-25T13:15:55.234Z,41.54
2019-03-25T13:18:25.738Z,43.81
2019-03-25T13:20:56.345Z,45.42
2019-03-25T13:23:26.775Z,49.86
2019-03-25T13:25:57.254Z,52.59
2019-03-25T13:28:28.778Z,53.71
2019-03-25T13:30:59.493Z,54.65
2019-03-25T13:33:29.969Z,55.37
2019-03-25T13:36:00.450Z,54.71
2019-03-25T13:38:31.088Z,54.65
2019-03-25T13:41:06.376Z,54.87
2019-03-25T13:43:36.896Z,55.48
2019-03-25T13:46:07.604Z,53.66
2019-03-25T13:48:38.161Z,53.06
2019-03-25T13:51:08.746Z,51.97
2019-03-25T13:53:39.216Z,51.32
2019-03-25T13:56:09.719Z,50.91
2019-03-25T13:58:40.159Z,50.04
2019-03-25T14:01:11.765Z,49.14
2019-03-25T14:03:42.222Z,49.24
2019-03-25T14:06:12.796Z,47.59
2019-03-25T14:08:43.323Z,48.30
2019-03-25T14:11:13.932Z,49.94
2019-03-25T14:13:49.080Z,51.67
2019-03-25T14:16:17.001Z,53.03
2019-03-25T14:18:47.521Z,54.61
2019-03-25T14:21:18.013Z,57.05
2019-03-25T14:23:48.528Z,58.14
2019-03-25T14:26:18.977Z,58.57
2019-03-25T14:28:49.535Z,56.59
2019-03-25T14:31:20.043Z,53.82
2019-03-25T14:33:50.600Z,52.11
2019-03-25T14:36:21.084Z,50.19
2019-03-25T14:38:51.639Z,49.76
2019-03-25T14:41:22.086Z,48.21
2019-03-25T14:43:52.644Z,48.56
2019-03-25T14:46:23.191Z,49.27
2019-03-25T14:48:54.778Z,50.88
2019-03-25T14:51:25.252Z,63.57
2019-03-25T14:53:55.718Z,73.37
2019-03-25T14:56:26.159Z,76.00
2019-03-25T14:58:56.667Z,76.27
2019-03-25T15:01:27.242Z,78.60
2019-03-25T15:03:57.904Z,79.32
2019-03-25T15:06:28.340Z,80.22
2019-03-25T15:08:59.065Z,77.07
2019-03-25T15:11:29.518Z,77.92
2019-03-25T15:14:00.274Z,77.78
2019-03-25T15:16:30.821Z,75.71
2019-03-25T15:19:01.485Z,75.37
2019-03-25T15:21:32.081Z,75.55
2019-03-25T15:24:02.586Z,75.70
2019-03-25T15:26:33.064Z,75.22
2019-03-25T15:29:03.508Z,71.92
2019-03-25T15:31:34.141Z,71.25
2019-03-25T15:34:04.627Z,69.37
2019-03-25T15:36:35.078Z,68.96
2019-03-25T15:39:08.080Z,65.16
2019-03-25T15:41:38.720Z,64.72
2019-03-25T15:44:09.200Z,63.35
2019-03-25T15:46:40.776Z,64.30
2019-03-25T15:49:11.410Z,63.54
2019-03-25T15:51:43.875Z,63.78
2019-03-25T15:54:14.382Z,64.35
2019-03-25T15:56:44.815Z,61.97
2019-03-25T15:59:15.291Z,62.47
2019-03-25T16:01:45.956Z,63.60
2019-03-25T16:04:16.515Z,64.46
2019-03-25T16:06:47.064Z,64.46
2019-03-25T16:09:17.649Z,64.33
2019-03-25T16:11:48.090Z,65.20
2019-03-25T16:14:18.591Z,64.74
2019-03-25T16:16:49.034Z,65.60
2019-03-25T16:19:19.531Z,66.88
2019-03-25T16:21:50.053Z,66.77
2019-03-25T16:24:20.600Z,66.51
2019-03-25T16:26:51.085Z,68.40
2019-03-25T16:29:21.571Z,69.47
2019-03-25T16:31:52.037Z,75.52
2019-03-25T16:34:22.581Z,77.76
2019-03-25T16:36:53.015Z,79.89
2019-03-25T16:39:23.597Z,80.43
2019-03-25T16:41:54.079Z,79.77
2019-03-25T16:44:24.679Z,78.71
2019-03-25T16:46:55.115Z,80.74
2019-03-25T16:49:25.668Z,81.28
2019-03-25T16:51:56.132Z,80.93
2019-03-25T16:54:26.575Z,80.15
2019-03-25T16:56:57.122Z,78.27
2019-03-25T16:59:29.947Z,76.43
2019-03-25T17:02:00.507Z,75.45
2019-03-25T17:04:32.887Z,72.61
2019-03-25T17:07:03.396Z,74.12
2019-03-25T17:09:34.992Z,73.00
2019-03-25T17:12:05.460Z,72.96
2019-03-25T17:14:36.008Z,73.07
2019-03-25T17:17:06.743Z,73.62
2019-03-25T17:19:37.221Z,72.82
2019-03-25T17:22:08.021Z,72.22
2019-03-25T17:24:38.466Z,72.16
2019-03-25T17:27:08.992Z,72.23
2019-03-25T17:29:39.424Z,72.06
2019-03-25T17:32:09.980Z,72.92
2019-03-25T17:34:40.426Z,73.62
2019-03-25T17:37:10.934Z,73.59
2019-03-25T17:39:41.474Z,73.77
2019-03-25T17:42:12.129Z,73.45
2019-03-25T17:44:42.672Z,73.24
2019-03-25T17:47:13.097Z,73.63
2019-03-25T17:49:43.546Z,73.72
2019-03-25T17:52:14.123Z,72.98
2019-03-25T17:54:44.650Z,73.01
2019-03-25T17:57:15.100Z,72.46
2019-03-25T17:59:45.552Z,72.55
2019-03-25T18:02:16.078Z,72.48
2019-03-25T18:04:46.500Z,72.67
2019-03-25T18:07:17.017Z,72.91
2019-03-25T18:09:47.536Z,72.02
2019-03-25T18:12:18.023Z,72.03
2019-03-25T18:14:48.465Z,71.77
2019-03-25T18:17:18.901Z,71.74
2019-03-25T18:19:49.384Z,72.18
2019-03-25T18:22:19.912Z,72.98
2019-03-25T18:24:50.357Z,73.00
2019-03-25T18:27:20.827Z,72.95
2019-03-25T18:29:51.362Z,72.96
2019-03-25T18:32:22.045Z,72.60
2019-03-25T18:34:52.597Z,71.80
2019-03-25T18:37:23.083Z,72.72
2019-03-25T18:39:53.614Z,73.13
2019-03-25T18:42:24.137Z,73.92
2019-03-25T18:44:54.797Z,77.21
2019-03-25T18:47:25.428Z,80.29
2019-03-25T18:49:55.921Z,81.02
2019-03-25T18:52:26.584Z,81.63
2019-03-25T18:54:57.080Z,81.54
2019-03-25T18:57:27.631Z,81.08
2019-03-25T18:59:58.205Z,79.85
2019-03-25T19:02:29.418Z,79.75
2019-03-25T19:05:00.250Z,79.30
2019-03-25T19:07:31.137Z,78.48
2019-03-25T19:10:02.618Z,79.26
2019-03-25T19:12:33.222Z,78.01
2019-03-25T19:15:03.686Z,78.34
2019-03-25T19:17:34.173Z,77.64
2019-03-25T19:20:04.979Z,77.94
2019-03-25T19:22:35.438Z,77.95
2019-03-25T19:25:07.276Z,77.71
2019-03-25T19:27:37.727Z,77.44
2019-03-25T19:30:08.590Z,77.02
2019-03-25T19:32:39.087Z,76.96
2019-03-25T19:35:10.096Z,76.90
2019-03-25T19:37:40.628Z,77.42
2019-03-25T19:40:11.308Z,77.25
2019-03-25T19:42:41.747Z,77.57
2019-03-25T19:45:14.048Z,77.31
2019-03-25T19:47:44.664Z,77.17
2019-03-25T19:50:15.582Z,77.26
2019-03-25T19:52:46.169Z,77.27
2019-03-25T19:55:16.767Z,77.41
2019-03-25T19:57:47.377Z,77.07
2019-03-25T20:00:21.736Z,77.66
2019-03-25T20:02:52.195Z,76.79
2019-03-25T20:05:23.699Z,76.14
2019-03-25T20:07:54.220Z,76.43
2019-03-25T20:10:30.676Z,75.14
2019-03-25T20:13:01.112Z,76.00
2019-03-25T20:15:44.943Z,75.78
2019-03-25T20:18:04.379Z,75.52
2019-03-25T20:20:34.934Z,75.17
2019-03-25T20:23:05.661Z,75.20
2019-03-25T20:25:36.195Z,74.57
2019-03-25T20:28:06.873Z,75.99
2019-03-25T20:30:37.596Z,75.68
2019-03-25T20:33:08.197Z,75.59
2019-03-25T20:35:38.629Z,75.38
2019-03-25T20:38:09.306Z,74.69
2019-03-25T20:40:39.900Z,75.07
2019-03-25T20:43:10.401Z,75.83
2019-03-25T20:45:40.983Z,76.20
2019-03-25T20:48:11.740Z,76.42
2019-03-25T20:50:42.312Z,76.60
2019-03-25T20:53:12.695Z,77.26
2019-03-25T20:55:43.248Z,77.53
2019-03-25T20:58:13.616Z,77.19
2019-03-25T21:00:57.503Z,77.26
2019-03-25T21:03:27.949Z,77.03
2019-03-25T21:06:01.542Z,76.71
2019-03-25T21:08:32.087Z,76.82
2019-03-25T21:11:02.510Z,76.57
2019-03-25T21:13:33.127Z,76.83
2019-03-25T21:16:03.903Z,77.10
2019-03-25T21:18:34.534Z,77.33
2019-03-25T21:21:05.044Z,77.93
2019-03-25T21:23:35.600Z,77.78
2019-03-25T21:26:07.458Z,78.10
2019-03-25T21:28:37.884Z,77.95
2019-03-25T21:31:08.456Z,77.24
2019-03-25T21:33:39.088Z,76.67
2019-03-25T21:36:09.600Z,76.93
2019-03-25T21:38:40.068Z,76.79
2019-03-25T21:41:10.564Z,76.88
2019-03-25T21:43:41.013Z,76.89
2019-03-25T21:46:11.510Z,76.10
2019-03-25T21:48:41.945Z,76.77
2019-03-25T21:51:12.365Z,76.29
2019-03-25T21:53:42.817Z,76.32
2019-03-25T21:56:13.267Z,76.66
2019-03-25T21:58:43.702Z,76.76
2019-03-25T22:01:14.199Z,76.55
2019-03-25T22:03:44.733Z,76.70
2019-03-25T22:06:15.197Z,76.88
2019-03-25T22:08:45.695Z,75.83
2019-03-25T22:11:16.149Z,76.72
2019-03-25T22:13:46.602Z,76.13
2019-03-25T22:16:17.205Z,75.94
2019-03-25T22:18:47.656Z,76.27
2019-03-25T22:21:18.008Z,74.37
2019-03-25T22:23:48.672Z,72.86
2019-03-25T22:26:19.122Z,72.26
2019-03-25T22:28:49.627Z,69.14
2019-03-25T22:31:20.048Z,67.44
2019-03-25T22:33:50.445Z,68.62
2019-03-25T22:36:20.891Z,68.19
2019-03-25T22:38:51.321Z,71.56
2019-03-25T22:41:21.789Z,70.76
2019-03-25T22:43:52.231Z,69.60
2019-03-25T22:46:22.732Z,70.73
2019-03-25T22:48:53.244Z,73.25
2019-03-25T22:51:23.696Z,70.18
2019-03-25T22:53:54.134Z,71.35
2019-03-25T22:56:24.583Z,73.45
2019-03-25T22:58:55.233Z,74.01
2019-03-25T23:01:25.917Z,73.78
2019-03-25T23:03:56.349Z,73.20
2019-03-25T23:06:26.891Z,72.51
2019-03-25T23:08:57.313Z,71.94
2019-03-25T23:11:27.828Z,71.88
2019-03-25T23:13:58.281Z,71.28
2019-03-25T23:16:29.023Z,71.38
2019-03-25T23:18:59.571Z,72.22
2019-03-25T23:21:30.030Z,72.83
2019-03-25T23:24:00.633Z,72.03
2019-03-25T23:26:30.976Z,71.83
2019-03-25T23:29:01.393Z,71.97
2019-03-25T23:31:31.987Z,71.42
2019-03-25T23:34:02.536Z,71.61
2019-03-25T23:36:32.983Z,70.94
2019-03-25T23:39:04.805Z,70.52
2019-03-25T23:41:35.616Z,71.58
2019-03-25T23:44:06.148Z,71.92
2019-03-25T23:46:36.592Z,72.74
2019-03-25T23:49:07.077Z,73.90
2019-03-25T23:51:37.581Z,74.63
2019-03-25T23:54:12.279Z,73.69
2019-03-25T23:56:43.292Z,73.48
2019-03-25T23:59:13.881Z,73.85
